createdAt,value
2022-10-16T00:01:34.216Z,1.50
2022-10-16T00:04:04.481Z,1.52
2022-10-16T00:06:33.159Z,1.38
2022-10-16T00:09:01.270Z,1.52
2022-10-16T00:11:31.302Z,1.75
2022-10-16T00:14:02.767Z,1.20
2022-10-16T00:16:30.698Z,1.80
2022-10-16T00:18:59.154Z,1.40
2022-10-16T00:21:29.919Z,1.75
2022-10-16T00:24:00.505Z,1.30
2022-10-16T00:26:29.790Z,1.55
2022-10-16T00:28:57.666Z,1.30
2022-10-16T00:31:26.524Z,1.70
2022-10-16T00:33:54.564Z,1.33
2022-10-16T00:36:25.715Z,1.42
2022-10-16T00:38:55.561Z,1.20
2022-10-16T00:41:25.827Z,1.33
2022-10-16T00:43:55.451Z,1.50
2022-10-16T00:46:25.130Z,1.50
2022-10-16T00:48:56.618Z,1.60
2022-10-16T00:51:28.071Z,1.50
2022-10-16T00:53:58.124Z,1.38
2022-10-16T00:56:25.840Z,1.50
2022-10-16T00:58:53.907Z,1.45
2022-10-16T01:01:21.714Z,1.67
2022-10-16T01:03:49.458Z,1.90
2022-10-16T01:09:12.016Z,1.55
2022-10-16T01:11:47.128Z,1.95
2022-10-16T01:14:21.644Z,1.37
2022-10-16T01:16:54.675Z,1.40
2022-10-16T01:19:38.020Z,1.33
2022-10-16T01:22:07.129Z,1.48
2022-10-16T01:24:41.714Z,1.38
2022-10-16T01:27:15.779Z,1.58
2022-10-16T01:29:51.920Z,1.20
2022-10-16T01:32:34.895Z,1.38
2022-10-16T01:35:06.661Z,1.40
2022-10-16T01:37:40.551Z,1.27
2022-10-16T01:40:12.173Z,1.30
2022-10-16T01:42:44.857Z,1.35
2022-10-16T01:45:16.375Z,1.40
2022-10-16T01:47:44.943Z,1.58
2022-10-16T01:50:14.170Z,1.52
2022-10-16T01:52:45.732Z,1.48
2022-10-16T01:55:16.550Z,1.67
2022-10-16T01:57:48.639Z,1.40
2022-10-16T02:00:20.916Z,1.45
2022-10-16T02:02:53.455Z,1.85
2022-10-16T02:05:27.372Z,1.17
2022-10-16T02:07:55.152Z,1.52
2022-10-16T02:10:23.324Z,1.50
2022-10-16T02:12:59.591Z,1.58
2022-10-16T02:15:27.390Z,1.50
2022-10-16T02:17:55.078Z,1.60
2022-10-16T02:20:27.289Z,1.73
2022-10-16T02:22:57.749Z,1.60
2022-10-16T02:25:31.625Z,1.52
2022-10-16T02:28:05.039Z,1.60
2022-10-16T02:30:38.104Z,1.65
2022-10-16T02:33:10.369Z,1.58
2022-10-16T02:35:39.377Z,1.38
2022-10-16T02:38:08.136Z,1.42
2022-10-16T02:40:36.589Z,1.48
2022-10-16T02:43:07.027Z,1.48
2022-10-16T02:45:34.907Z,2.22
2022-10-16T02:48:02.628Z,1.55
2022-10-16T02:50:30.391Z,2.00
2022-10-16T02:52:58.058Z,1.67
2022-10-16T02:55:25.815Z,1.27
2022-10-16T02:57:53.599Z,1.88
2022-10-16T03:00:22.822Z,1.40
2022-10-16T03:02:50.542Z,1.88
2022-10-16T03:05:18.769Z,1.65
2022-10-16T03:07:46.541Z,1.60
2022-10-16T03:10:14.424Z,1.80
2022-10-16T03:12:42.113Z,1.85
2022-10-16T03:15:10.604Z,1.40
2022-10-16T03:17:39.668Z,1.50
2022-10-16T03:20:08.403Z,1.50
2022-10-16T03:22:36.215Z,1.90
2022-10-16T03:25:04.111Z,1.80
2022-10-16T03:27:31.807Z,1.50
2022-10-16T03:29:59.504Z,1.65
2022-10-16T03:32:27.261Z,1.67
2022-10-16T03:34:57.828Z,1.67
2022-10-16T03:37:25.932Z,1.70
2022-10-16T03:39:54.455Z,1.50
2022-10-16T03:42:22.234Z,1.35
2022-10-16T03:44:49.936Z,1.33
2022-10-16T03:47:21.588Z,1.45
2022-10-16T03:49:49.476Z,1.63
2022-10-16T03:54:46.559Z,1.58
2022-10-16T03:57:14.254Z,1.63
2022-10-16T03:59:41.963Z,2.00
2022-10-16T04:02:09.648Z,1.52
2022-10-16T04:04:37.646Z,1.60
2022-10-16T04:07:05.599Z,1.63
2022-10-16T04:09:34.720Z,1.20
2022-10-16T04:12:02.841Z,1.30
2022-10-16T04:14:30.512Z,1.27
2022-10-16T04:16:58.216Z,1.50
2022-10-16T04:19:25.880Z,1.10
2022-10-16T04:21:53.587Z,1.40
2022-10-16T04:24:21.262Z,1.63
2022-10-16T04:26:50.371Z,1.55
2022-10-16T04:29:18.201Z,1.63
2022-10-16T04:31:45.871Z,1.27
2022-10-16T04:34:13.637Z,1.67
2022-10-16T04:36:41.355Z,1.58
2022-10-16T04:39:09.091Z,1.58
2022-10-16T04:41:36.880Z,1.42
2022-10-16T04:44:05.921Z,1.60
2022-10-16T04:46:33.625Z,1.58
2022-10-16T04:49:01.335Z,1.42
2022-10-16T04:51:29.151Z,1.73
2022-10-16T04:53:57.015Z,1.30
2022-10-16T04:56:25.313Z,1.70
2022-10-16T04:58:53.100Z,1.83
2022-10-16T05:01:22.257Z,1.70
2022-10-16T05:03:49.975Z,1.85
2022-10-16T05:06:17.698Z,1.70
2022-10-16T05:08:45.402Z,1.33
2022-10-16T05:11:13.144Z,1.60
2022-10-16T05:13:40.852Z,1.45
2022-10-16T05:16:08.752Z,1.50
2022-10-16T05:18:37.771Z,1.38
2022-10-16T05:21:06.648Z,1.42
2022-10-16T05:23:34.413Z,1.52
2022-10-16T05:26:02.350Z,1.50
2022-10-16T05:28:31.847Z,1.35
2022-10-16T05:31:00.178Z,1.00
2022-10-16T05:33:28.494Z,1.35
2022-10-16T05:35:57.530Z,1.80
2022-10-16T05:38:25.248Z,1.20
2022-10-16T05:40:54.146Z,1.15
2022-10-16T05:43:22.313Z,1.42
2022-10-16T05:45:56.993Z,1.40
2022-10-16T05:48:24.963Z,1.10
2022-10-16T05:51:00.718Z,2.85
2022-10-16T05:53:30.120Z,1.25
2022-10-16T05:55:58.507Z,1.23
2022-10-16T05:58:27.199Z,1.30
2022-10-16T06:00:55.973Z,1.30
2022-10-16T06:03:24.113Z,1.33
2022-10-16T06:05:52.136Z,1.33
2022-10-16T06:08:22.956Z,1.20
2022-10-16T06:10:51.261Z,1.10
2022-10-16T06:13:18.955Z,1.20
2022-10-16T06:15:47.323Z,1.33
2022-10-16T06:18:15.035Z,1.40
2022-10-16T06:20:42.751Z,1.60
2022-10-16T06:23:10.449Z,1.40
2022-10-16T06:25:39.493Z,2.88
2022-10-16T06:28:07.347Z,1.60
2022-10-16T06:30:35.062Z,1.45
2022-10-16T06:33:02.782Z,1.23
2022-10-16T06:35:32.766Z,1.33
2022-10-16T06:38:00.566Z,1.15
2022-10-16T06:40:28.527Z,1.38
2022-10-16T06:42:58.340Z,1.30
2022-10-16T06:45:26.172Z,1.13
2022-10-16T06:47:53.886Z,1.25
2022-10-16T06:50:21.587Z,2.15
2022-10-16T06:52:49.298Z,1.20
2022-10-16T06:55:17.910Z,1.45
2022-10-16T06:57:45.723Z,1.00
2022-10-16T07:00:15.231Z,1.27
2022-10-16T07:02:42.987Z,1.63
2022-10-16T07:05:10.903Z,1.10
2022-10-16T07:07:38.580Z,1.55
2022-10-16T07:10:06.981Z,2.40
2022-10-16T07:12:34.703Z,1.95
2022-10-16T07:15:02.454Z,3.55
2022-10-16T07:17:31.572Z,2.20
2022-10-16T07:19:59.232Z,2.90
2022-10-16T07:22:27.289Z,2.20
2022-10-16T07:24:55.232Z,1.65
2022-10-16T07:27:24.914Z,1.70
2022-10-16T07:29:52.780Z,1.50
2022-10-16T07:32:20.558Z,3.10
2022-10-16T07:34:49.640Z,4.30
2022-10-16T07:37:17.365Z,1.55
2022-10-16T07:39:45.065Z,2.05
2022-10-16T07:42:12.771Z,2.70
2022-10-16T07:44:40.954Z,3.25
2022-10-16T07:47:08.807Z,2.22
2022-10-16T07:49:36.578Z,2.40
2022-10-16T07:52:05.879Z,2.40
2022-10-16T07:54:33.618Z,1.85
2022-10-16T07:57:01.300Z,1.65
2022-10-16T07:59:29.121Z,2.15
2022-10-16T08:01:56.801Z,1.55
2022-10-16T08:04:24.589Z,2.33
2022-10-16T08:06:52.328Z,1.60
2022-10-16T08:09:21.481Z,1.60
2022-10-16T08:11:49.268Z,2.03
2022-10-16T08:14:17.157Z,2.08
2022-10-16T08:16:44.894Z,1.50
2022-10-16T08:19:12.629Z,1.63
2022-10-16T08:21:40.378Z,1.27
2022-10-16T08:24:08.175Z,1.10
2022-10-16T08:26:37.223Z,1.00
2022-10-16T08:29:04.980Z,1.83
2022-10-16T08:31:32.720Z,1.23
2022-10-16T08:34:00.763Z,1.05
2022-10-16T08:36:28.488Z,1.10
2022-10-16T08:38:56.678Z,1.23
2022-10-16T08:42:03.119Z,1.10
2022-10-16T08:45:00.520Z,1.83
2022-10-16T08:47:41.090Z,1.30
2022-10-16T08:50:12.197Z,1.30
2022-10-16T08:52:43.372Z,1.60
2022-10-16T08:55:25.109Z,1.08
2022-10-16T08:57:54.238Z,1.73
2022-10-16T09:00:22.932Z,1.42
2022-10-16T09:02:57.797Z,1.40
2022-10-16T09:05:39.977Z,0.97
2022-10-16T09:08:20.526Z,0.90
2022-10-16T09:10:56.846Z,1.17
2022-10-16T09:13:31.116Z,1.85
2022-10-16T09:16:12.998Z,1.67
2022-10-16T09:18:46.877Z,1.10
2022-10-16T09:21:20.259Z,1.13
2022-10-16T09:23:49.344Z,1.30
2022-10-16T09:26:20.022Z,1.60
2022-10-16T09:28:49.292Z,1.40
2022-10-16T09:31:21.346Z,1.30
2022-10-16T09:33:53.529Z,1.38
2022-10-16T09:36:22.807Z,1.60
2022-10-16T09:38:51.024Z,1.10
2022-10-16T09:41:21.635Z,1.58
2022-10-16T09:43:55.549Z,1.27
2022-10-16T09:46:31.221Z,1.20
2022-10-16T09:49:01.114Z,1.00
2022-10-16T09:51:30.941Z,1.33
2022-10-16T09:54:01.301Z,1.25
2022-10-16T09:56:30.857Z,1.52
2022-10-16T09:59:02.224Z,1.20
2022-10-16T10:01:36.988Z,1.25
2022-10-16T10:04:04.967Z,1.23
2022-10-16T10:06:35.325Z,1.25
2022-10-16T10:09:07.624Z,3.50
2022-10-16T10:11:53.947Z,1.35
2022-10-16T10:14:37.037Z,1.27
2022-10-16T10:17:15.016Z,1.10
2022-10-16T10:19:47.815Z,1.35
2022-10-16T10:22:19.702Z,1.25
2022-10-16T10:24:56.127Z,1.45
2022-10-16T10:27:29.957Z,1.13
2022-10-16T10:30:05.636Z,2.22
2022-10-16T10:32:43.819Z,1.30
2022-10-16T10:35:20.935Z,1.55
2022-10-16T10:38:00.167Z,1.30
2022-10-16T10:40:40.857Z,1.55
2022-10-16T10:43:21.233Z,1.27
2022-10-16T10:45:56.806Z,1.10
2022-10-16T10:48:49.574Z,1.05
2022-10-16T10:51:24.984Z,2.00
2022-10-16T10:56:46.922Z,1.20
2022-10-16T10:59:54.315Z,1.67
2022-10-16T11:02:29.612Z,1.55
2022-10-16T11:05:22.383Z,1.48
2022-10-16T11:07:53.918Z,1.10
2022-10-16T11:10:25.365Z,1.42
2022-10-16T11:12:56.689Z,2.05
2022-10-16T11:15:31.006Z,1.20
2022-10-16T11:18:07.843Z,1.47
2022-10-16T11:20:41.752Z,1.20
2022-10-16T11:23:17.188Z,1.48
2022-10-16T11:25:46.724Z,1.20
2022-10-16T11:28:18.465Z,1.05
2022-10-16T11:30:51.300Z,1.25
2022-10-16T11:33:32.206Z,1.20
2022-10-16T11:36:05.912Z,1.20
2022-10-16T11:38:40.911Z,1.63
2022-10-16T11:41:17.284Z,1.38
2022-10-16T11:43:51.235Z,1.30
2022-10-16T11:46:23.490Z,1.70
2022-10-16T11:48:59.343Z,1.30
2022-10-16T11:51:35.198Z,1.05
2022-10-16T11:54:10.680Z,1.48
2022-10-16T11:56:42.292Z,2.00
2022-10-16T11:59:19.176Z,1.83
2022-10-16T12:01:52.217Z,1.90
2022-10-16T12:04:29.282Z,1.63
2022-10-16T12:07:04.219Z,1.40
2022-10-16T12:09:33.848Z,1.55
2022-10-16T12:12:02.405Z,2.20
2022-10-16T12:15:04.086Z,1.02
2022-10-16T12:17:36.585Z,2.10
2022-10-16T12:20:26.916Z,1.20
2022-10-16T12:22:57.877Z,1.40
2022-10-16T12:25:29.366Z,1.45
2022-10-16T12:28:00.101Z,1.50
2022-10-16T12:30:33.600Z,1.75
2022-10-16T12:35:37.743Z,1.20
2022-10-16T12:40:42.985Z,1.10
2022-10-16T12:43:29.067Z,1.58
2022-10-16T12:46:02.657Z,2.33
2022-10-16T12:48:37.078Z,1.25
2022-10-16T12:51:26.543Z,1.35
2022-10-16T12:54:01.042Z,1.60
2022-10-16T12:59:17.886Z,2.13
2022-10-16T13:02:00.264Z,1.60
2022-10-16T13:04:48.456Z,1.50
2022-10-16T13:07:31.355Z,0.90
2022-10-16T13:10:10.479Z,1.45
2022-10-16T13:12:55.942Z,1.55
2022-10-16T13:15:43.713Z,1.77
2022-10-16T13:18:17.731Z,1.40
2022-10-16T13:21:05.673Z,1.20
2022-10-16T13:23:42.715Z,1.30
2022-10-16T13:26:20.282Z,1.30
2022-10-16T13:28:48.158Z,1.27
2022-10-16T13:31:20.339Z,1.40
2022-10-16T13:33:51.782Z,1.30
2022-10-16T13:36:24.033Z,1.73
2022-10-16T13:39:06.680Z,1.42
2022-10-16T13:41:34.379Z,1.38
2022-10-16T13:44:02.116Z,1.30
2022-10-16T13:46:30.599Z,1.80
2022-10-16T13:48:59.327Z,2.50
2022-10-16T13:51:27.186Z,1.75
2022-10-16T13:53:57.411Z,1.73
2022-10-16T13:56:29.221Z,2.33
2022-10-16T13:59:01.605Z,2.03
2022-10-16T14:01:32.744Z,1.45
2022-10-16T14:04:06.399Z,2.17
2022-10-16T14:06:35.021Z,2.95
2022-10-16T14:09:07.073Z,1.73
2022-10-16T14:11:40.865Z,2.08
2022-10-16T14:14:13.403Z,2.80
2022-10-16T14:16:43.779Z,3.00
2022-10-16T14:19:20.709Z,1.80
2022-10-16T14:21:51.999Z,1.40
2022-10-16T14:24:29.368Z,1.60
2022-10-16T14:26:59.007Z,1.33
2022-10-16T14:29:27.911Z,1.45
2022-10-16T14:31:59.878Z,2.00
2022-10-16T14:34:31.268Z,1.77
2022-10-16T14:37:01.865Z,1.70
2022-10-16T14:39:29.798Z,2.05
2022-10-16T14:42:00.344Z,1.80
2022-10-16T14:44:34.256Z,1.80
2022-10-16T14:47:11.914Z,2.17
2022-10-16T14:49:39.973Z,2.47
2022-10-16T14:52:12.053Z,1.85
2022-10-16T14:54:40.344Z,2.17
2022-10-16T14:57:18.772Z,1.98
2022-10-16T14:59:47.492Z,2.10
2022-10-16T15:02:24.881Z,1.73
2022-10-16T15:04:52.966Z,1.80
2022-10-16T15:07:20.740Z,1.70
2022-10-16T15:09:49.454Z,1.70
2022-10-16T15:12:19.107Z,1.90
2022-10-16T15:14:46.826Z,1.83
2022-10-16T15:17:16.398Z,1.80
2022-10-16T15:19:46.471Z,1.50
2022-10-16T15:22:14.430Z,1.27
2022-10-16T15:24:42.144Z,1.70
2022-10-16T15:27:09.842Z,1.70
2022-10-16T15:29:38.877Z,1.73
2022-10-16T15:32:06.773Z,2.15
2022-10-16T15:34:34.471Z,1.60
2022-10-16T15:37:05.263Z,1.95
2022-10-16T15:39:35.637Z,1.77
2022-10-16T15:42:06.720Z,1.80
2022-10-16T15:44:34.424Z,1.35
2022-10-16T15:47:03.469Z,1.75
2022-10-16T15:49:31.157Z,2.00
2022-10-16T15:51:58.876Z,1.85
2022-10-16T15:54:26.587Z,2.35
2022-10-16T15:56:54.412Z,2.45
2022-10-16T15:59:22.127Z,2.65
2022-10-16T16:01:49.865Z,2.00
2022-10-16T16:04:42.283Z,2.03
2022-10-16T16:07:08.174Z,1.77
2022-10-16T16:09:35.910Z,2.75
2022-10-16T16:12:03.750Z,2.97
2022-10-16T16:14:31.445Z,2.80
2022-10-16T16:16:59.412Z,2.28
2022-10-16T16:19:28.501Z,2.50
2022-10-16T16:21:56.204Z,3.17
2022-10-16T16:24:23.928Z,2.47
2022-10-16T16:26:51.678Z,2.55
2022-10-16T16:29:19.442Z,2.20
2022-10-16T16:31:47.973Z,2.58
2022-10-16T16:34:16.013Z,2.60
2022-10-16T16:36:45.053Z,2.83
2022-10-16T16:39:12.783Z,2.97
2022-10-16T16:41:40.501Z,2.50
2022-10-16T16:44:12.476Z,2.65
2022-10-16T16:46:40.938Z,2.30
2022-10-16T16:49:09.042Z,2.55
2022-10-16T16:51:39.742Z,3.22
2022-10-16T16:54:11.192Z,2.70
2022-10-16T16:56:39.033Z,3.20
2022-10-16T16:59:06.752Z,2.05
2022-10-16T17:01:34.467Z,2.08
2022-10-16T17:04:03.115Z,2.17
2022-10-16T17:06:31.316Z,2.60
2022-10-16T17:08:59.747Z,2.38
2022-10-16T17:11:29.220Z,10.15
2022-10-16T17:13:58.548Z,30.80
2022-10-16T17:16:29.575Z,10.90
2022-10-16T17:18:57.391Z,12.52
2022-10-16T17:21:26.866Z,4.43
2022-10-16T17:23:54.834Z,4.93
2022-10-16T17:26:22.607Z,3.90
2022-10-16T17:28:54.545Z,2.53
2022-10-16T17:31:24.287Z,2.65
2022-10-16T17:33:52.576Z,2.42
2022-10-16T17:36:21.336Z,2.70
2022-10-16T17:38:49.120Z,2.05
2022-10-16T17:41:18.544Z,2.10
2022-10-16T17:43:46.848Z,2.08
2022-10-16T17:46:17.333Z,2.00
2022-10-16T17:48:46.722Z,2.30
2022-10-16T17:51:16.368Z,2.30
2022-10-16T17:53:44.738Z,2.50
2022-10-16T17:56:14.394Z,2.30
2022-10-16T17:58:43.157Z,1.77
2022-10-16T18:01:18.742Z,2.20
2022-10-16T18:03:50.902Z,2.10
2022-10-16T18:06:22.682Z,2.30
2022-10-16T18:08:51.211Z,1.80
2022-10-16T18:11:19.329Z,2.25
2022-10-16T18:13:47.146Z,2.97
2022-10-16T18:16:16.817Z,2.83
2022-10-16T18:18:45.785Z,2.38
2022-10-16T18:21:15.343Z,2.40
2022-10-16T18:23:49.047Z,2.50
2022-10-16T18:26:20.108Z,2.13
2022-10-16T18:28:48.347Z,2.63
2022-10-16T18:31:18.754Z,2.08
2022-10-16T18:33:50.351Z,2.80
2022-10-16T18:36:20.808Z,2.97
2022-10-16T18:38:48.778Z,3.72
2022-10-16T18:41:16.521Z,3.35
2022-10-16T18:43:44.267Z,3.63
2022-10-16T18:46:15.182Z,4.35
2022-10-16T18:48:44.477Z,4.53
2022-10-16T18:51:15.899Z,4.00
2022-10-16T18:53:45.581Z,3.63
2022-10-16T18:56:15.003Z,2.72
2022-10-16T18:58:44.271Z,2.53
2022-10-16T19:01:16.578Z,2.53
2022-10-16T19:03:46.075Z,2.22
2022-10-16T19:06:15.557Z,1.90
2022-10-16T19:08:44.384Z,2.17
2022-10-16T19:11:14.752Z,1.98
2022-10-16T19:13:43.393Z,1.70
2022-10-16T19:16:21.946Z,1.85
2022-10-16T19:18:53.487Z,1.85
2022-10-16T19:21:21.657Z,2.20
2022-10-16T19:23:53.578Z,2.47
2022-10-16T19:26:23.478Z,1.85
2022-10-16T19:28:53.111Z,3.10
2022-10-16T19:31:23.105Z,2.28
2022-10-16T19:33:54.962Z,2.70
2022-10-16T19:36:26.707Z,3.28
2022-10-16T19:38:56.733Z,3.40
2022-10-16T19:41:25.866Z,4.28
2022-10-16T19:43:54.391Z,6.68
2022-10-16T19:46:24.364Z,5.75
2022-10-16T19:48:56.943Z,3.30
2022-10-16T19:51:25.405Z,3.67
2022-10-16T19:53:56.573Z,2.42
2022-10-16T19:56:25.840Z,3.30
2022-10-16T19:58:56.225Z,3.40
2022-10-16T20:01:26.305Z,2.42
2022-10-16T20:03:54.629Z,3.15
2022-10-16T20:06:23.711Z,3.00
2022-10-16T20:08:53.302Z,3.17
2022-10-16T20:11:24.479Z,3.20
2022-10-16T20:13:52.536Z,2.67
2022-10-16T20:16:20.937Z,2.45
2022-10-16T20:18:50.284Z,3.13
2022-10-16T20:21:19.787Z,3.95
2022-10-16T20:23:50.751Z,3.40
2022-10-16T20:26:20.071Z,2.97
2022-10-16T20:28:48.078Z,3.60
2022-10-16T20:31:19.648Z,3.38
2022-10-16T20:33:47.477Z,2.75
2022-10-16T20:36:16.398Z,3.28
2022-10-16T20:38:44.403Z,3.80
2022-10-16T20:41:14.225Z,3.13
2022-10-16T20:46:18.184Z,3.75
2022-10-16T20:48:47.203Z,3.90
2022-10-16T20:51:17.200Z,3.70
2022-10-16T20:53:45.888Z,3.22
2022-10-16T20:56:17.308Z,3.05
2022-10-16T20:58:46.121Z,3.60
2022-10-16T21:01:16.588Z,3.60
2022-10-16T21:03:45.703Z,2.90
2022-10-16T21:06:13.710Z,3.22
2022-10-16T21:08:43.548Z,3.47
2022-10-16T21:11:13.209Z,3.63
2022-10-16T21:13:43.177Z,3.75
2022-10-16T21:16:12.832Z,4.00
2022-10-16T21:18:44.621Z,3.72
2022-10-16T21:21:21.816Z,3.70
2022-10-16T21:23:49.968Z,3.38
2022-10-16T21:26:20.890Z,3.25
2022-10-16T21:28:52.698Z,3.65
2022-10-16T21:31:21.838Z,3.60
2022-10-16T21:33:50.905Z,3.20
2022-10-16T21:36:21.559Z,3.85
2022-10-16T21:38:49.845Z,3.35
2022-10-16T21:41:19.661Z,3.65
2022-10-16T21:43:48.481Z,3.28
2022-10-16T21:46:19.415Z,3.83
2022-10-16T21:48:48.037Z,3.65
2022-10-16T21:51:16.475Z,3.30
2022-10-16T21:53:44.616Z,4.03
2022-10-16T21:56:17.458Z,3.97
2022-10-16T21:58:45.986Z,4.40
2022-10-16T22:01:15.921Z,4.50
2022-10-16T22:03:45.660Z,4.63
2022-10-16T22:06:15.496Z,4.50
2022-10-16T22:08:43.547Z,4.88
2022-10-16T22:11:13.722Z,5.25
2022-10-16T22:13:42.492Z,4.45
2022-10-16T22:16:10.887Z,4.90
2022-10-16T22:18:39.495Z,4.70
2022-10-16T22:21:10.352Z,4.60
2022-10-16T22:23:38.117Z,5.50
2022-10-16T22:26:08.517Z,5.00
2022-10-16T22:28:36.756Z,5.10
2022-10-16T22:31:06.657Z,4.53
2022-10-16T22:36:02.512Z,5.03
2022-10-16T22:38:31.634Z,3.47
2022-10-16T22:41:02.570Z,3.47
2022-10-16T22:43:30.284Z,3.20
2022-10-16T22:46:03.488Z,2.70
2022-10-16T22:48:31.354Z,3.92
2022-10-16T22:50:59.079Z,2.40
2022-10-16T22:53:26.845Z,2.50
2022-10-16T22:55:56.080Z,2.47
2022-10-16T22:58:23.845Z,2.83
2022-10-16T23:00:51.758Z,2.58
2022-10-16T23:03:19.661Z,2.63
2022-10-16T23:05:47.425Z,2.50
2022-10-16T23:08:15.309Z,2.53
2022-10-16T23:10:45.238Z,2.65
2022-10-16T23:13:14.920Z,2.20
2022-10-16T23:15:43.407Z,2.58
2022-10-16T23:18:11.884Z,2.60
2022-10-16T23:20:41.382Z,2.65
2022-10-16T23:23:09.600Z,2.78
2022-10-16T23:25:37.818Z,2.08
2022-10-16T23:28:05.943Z,2.10
2022-10-16T23:30:35.037Z,2.53
2022-10-16T23:33:02.844Z,2.40
2022-10-16T23:35:30.550Z,2.17
2022-10-16T23:37:58.766Z,2.45
2022-10-16T23:40:26.515Z,1.92
2022-10-16T23:42:54.201Z,2.00
2022-10-16T23:45:21.894Z,2.25
2022-10-16T23:47:50.967Z,2.70
2022-10-16T23:50:18.712Z,1.90
2022-10-16T23:52:46.455Z,3.20
2022-10-16T23:55:14.189Z,2.60
2022-10-16T23:57:41.931Z,2.80
